Time;durP1;ratioP1;P1;durP2;ratioP2;P2;SDS_P1;SDS_P2;PMS_P1;PMS_P2;Temp;Humidity;BMP_temperature;BMP_pressure;BME280_temperature;BME280_humidity;BME280_pressure;Samples;Min_cycle;Max_cycle;Signal;HPM_P1;HPM_P2
2023/08/17 00:00:14;;;;;;;12.18;4.88;;;;;;;;;;5046124;28;20068;-65
2023/08/17 00:02:41;;;;;;;7.75;3.90;;;;;;;;;;5044996;28;20143;-64
2023/08/17 00:05:07;;;;;;;8.10;3.72;;;;;;;;;;5051117;28;20378;-65
2023/08/17 00:07:34;;;;;;;13.80;5.18;;;;;;;;;;5042978;28;20036;-64
2023/08/17 00:10:00;;;;;;;9.05;4.18;;;;;;;;;;5050678;28;20115;-65
2023/08/17 00:12:26;;;;;;;11.43;4.75;;;;;;;;;;5048373;28;20137;-64
2023/08/17 00:14:52;;;;;;;7.22;4.00;;;;;;;;;;5051586;28;20412;-65
2023/08/17 00:17:19;;;;;;;12.55;4.55;;;;;;;;;;5060277;28;20044;-64
2023/08/17 00:19:45;;;;;;;11.00;4.30;;;;;;;;;;5045927;28;20047;-64
2023/08/17 00:22:11;;;;;;;9.27;4.47;;;;;;;;;;5040534;28;20037;-64
2023/08/17 00:24:37;;;;;;;10.38;4.47;;;;;;;;;;5050653;28;20045;-65
2023/08/17 00:27:03;;;;;;;11.57;3.63;;;;;;;;;;5049815;28;20133;-64
2023/08/17 00:29:30;;;;;;;9.65;4.07;;;;;;;;;;5047060;28;20081;-65
2023/08/17 00:31:56;;;;;;;14.15;4.70;;;;;;;;;;5065785;28;20049;-64
2023/08/17 00:34:22;;;;;;;8.98;4.60;;;;;;;;;;5045512;28;20959;-65
2023/08/17 00:36:48;;;;;;;8.77;4.13;;;;;;;;;;5056065;28;20496;-65
2023/08/17 00:39:14;;;;;;;7.22;4.30;;;;;;;;;;5054992;28;20094;-64
2023/08/17 00:41:40;;;;;;;17.35;4.60;;;;;;;;;;5032958;28;20041;-64
2023/08/17 00:44:06;;;;;;;9.52;4.18;;;;;;;;;;5038994;28;20402;-65
2023/08/17 00:46:33;;;;;;;9.77;4.75;;;;;;;;;;5037058;28;20424;-64
2023/08/17 00:48:59;;;;;;;8.23;4.28;;;;;;;;;;5047069;28;20059;-65
2023/08/17 00:51:26;;;;;;;8.68;4.57;;;;;;;;;;5035881;28;20108;-64
2023/08/17 00:53:54;;;;;;;9.77;4.55;;;;;;;;;;5034849;28;20095;-64
2023/08/17 00:56:20;;;;;;;8.57;4.35;;;;;;;;;;5041732;28;20191;-64
2023/08/17 00:58:46;;;;;;;9.32;4.30;;;;;;;;;;5046049;28;20094;-64
2023/08/17 01:01:12;;;;;;;8.82;4.88;;;;;;;;;;5042121;28;20041;-64
2023/08/17 01:03:40;;;;;;;9.88;4.18;;;;;;;;;;5034829;28;20053;-64
2023/08/17 01:06:06;;;;;;;7.18;4.38;;;;;;;;;;5054691;28;20044;-64
2023/08/17 01:08:32;;;;;;;10.07;3.70;;;;;;;;;;5047524;28;20059;-65
2023/08/17 01:11:08;;;;;;;7.90;4.30;;;;;;;;;;5034977;28;20962;-64
2023/08/17 01:13:46;;;;;;;8.27;3.90;;;;;;;;;;5045595;28;20052;-64
2023/08/17 01:16:15;;;;;;;5.82;3.90;;;;;;;;;;5052315;28;20037;-64
2023/08/17 01:18:41;;;;;;;8.07;3.65;;;;;;;;;;5047591;28;20056;-64
2023/08/17 01:21:08;;;;;;;9.80;4.10;;;;;;;;;;5035758;28;20045;-64
2023/08/17 01:23:35;;;;;;;6.95;4.10;;;;;;;;;;5048011;28;20432;-64
2023/08/17 01:26:01;;;;;;;9.23;4.95;;;;;;;;;;5057992;28;20425;-64
2023/08/17 01:28:27;;;;;;;10.60;4.32;;;;;;;;;;5050491;28;20154;-64
2023/08/17 01:31:03;;;;;;;6.70;3.92;;;;;;;;;;5046409;28;20053;-64
2023/08/17 01:33:33;;;;;;;7.00;4.00;;;;;;;;;;5050017;28;20041;-64
2023/08/17 01:36:08;;;;;;;8.18;4.32;;;;;;;;;;5051020;28;20045;-64
2023/08/17 01:38:35;;;;;;;6.38;4.45;;;;;;;;;;5038053;28;20401;-64
2023/08/17 01:41:01;;;;;;;9.52;4.03;;;;;;;;;;5047810;28;20060;-64
2023/08/17 01:43:28;;;;;;;8.00;3.80;;;;;;;;;;5030958;28;20055;-64
2023/08/17 01:45:55;;;;;;;9.38;4.47;;;;;;;;;;5050798;28;20484;-64
2023/08/17 01:48:21;;;;;;;7.30;4.05;;;;;;;;;;5032626;28;20053;-64
2023/08/17 01:50:47;;;;;;;7.07;4.05;;;;;;;;;;5055490;28;20052;-64
2023/08/17 01:53:13;;;;;;;9.45;4.25;;;;;;;;;;5039566;28;20046;-64
2023/08/17 01:55:40;;;;;;;11.75;4.47;;;;;;;;;;5036482;28;20124;-64
2023/08/17 01:58:06;;;;;;;6.75;4.35;;;;;;;;;;5035481;28;20055;-64
2023/08/17 02:00:32;;;;;;;9.68;4.05;;;;;;;;;;5050019;28;20053;-64
2023/08/17 02:02:58;;;;;;;9.15;4.40;;;;;;;;;;5044706;28;20045;-64
2023/08/17 02:05:25;;;;;;;8.65;4.75;;;;;;;;;;5032923;28;20045;-64
2023/08/17 02:07:51;;;;;;;8.85;4.07;;;;;;;;;;5047853;28;20404;-64
2023/08/17 02:10:17;;;;;;;8.43;4.38;;;;;;;;;;5040570;28;20494;-64
2023/08/17 02:12:43;;;;;;;6.93;4.22;;;;;;;;;;5047883;28;20454;-64
2023/08/17 02:15:09;;;;;;;8.90;4.38;;;;;;;;;;5046090;28;20477;-64
2023/08/17 02:17:35;;;;;;;8.95;4.38;;;;;;;;;;5046907;28;20114;-64
2023/08/17 02:20:03;;;;;;;10.02;4.50;;;;;;;;;;5049171;28;20087;-64
2023/08/17 02:22:29;;;;;;;8.02;3.65;;;;;;;;;;5049469;28;20074;-64
2023/08/17 02:24:55;;;;;;;7.32;4.45;;;;;;;;;;5040578;28;20080;-64
2023/08/17 02:27:21;;;;;;;8.38;4.18;;;;;;;;;;5043705;28;20462;-64
2023/08/17 02:29:47;;;;;;;9.65;4.30;;;;;;;;;;5052432;28;20082;-65
2023/08/17 02:32:13;;;;;;;7.28;4.25;;;;;;;;;;5046501;28;20081;-65
2023/08/17 02:34:39;;;;;;;9.80;4.43;;;;;;;;;;5044586;28;20082;-65
2023/08/17 02:37:06;;;;;;;9.05;4.28;;;;;;;;;;5049324;28;20057;-64
2023/08/17 02:39:32;;;;;;;9.07;4.75;;;;;;;;;;5051362;28;20443;-65
2023/08/17 02:41:58;;;;;;;7.07;4.82;;;;;;;;;;5053575;28;20053;-64
2023/08/17 02:44:24;;;;;;;12.25;5.47;;;;;;;;;;5046266;28;20484;-64
2023/08/17 02:46:50;;;;;;;8.05;4.47;;;;;;;;;;5048207;28;20115;-64
2023/08/17 02:49:16;;;;;;;10.70;5.45;;;;;;;;;;5050832;28;20136;-64
2023/08/17 02:51:42;;;;;;;8.88;4.68;;;;;;;;;;5041015;28;20049;-64
2023/08/17 02:54:08;;;;;;;10.23;4.97;;;;;;;;;;5049502;28;20098;-64
2023/08/17 02:56:34;;;;;;;10.25;5.25;;;;;;;;;;5050077;28;20072;-64
2023/08/17 02:59:00;;;;;;;10.60;4.93;;;;;;;;;;5048541;28;20048;-64
2023/08/17 03:01:26;;;;;;;12.27;5.32;;;;;;;;;;5045563;28;20551;-64
2023/08/17 03:03:52;;;;;;;10.82;4.93;;;;;;;;;;5034960;28;20051;-64
2023/08/17 03:06:18;;;;;;;10.43;5.28;;;;;;;;;;5047443;28;20404;-64
2023/08/17 03:08:44;;;;;;;7.60;5.10;;;;;;;;;;5051405;28;20132;-63
2023/08/17 03:11:10;;;;;;;9.00;5.07;;;;;;;;;;5044883;28;20159;-64
2023/08/17 03:13:37;;;;;;;11.50;5.28;;;;;;;;;;5047620;28;20053;-64
2023/08/17 03:16:03;;;;;;;9.90;5.35;;;;;;;;;;5050712;28;20112;-65
2023/08/17 03:18:29;;;;;;;8.45;4.40;;;;;;;;;;5051125;28;20056;-64
2023/08/17 03:20:55;;;;;;;9.48;4.68;;;;;;;;;;5049047;28;20060;-64
2023/08/17 03:23:21;;;;;;;8.07;4.63;;;;;;;;;;5049562;28;20072;-64
2023/08/17 03:25:51;;;;;;;9.95;5.18;;;;;;;;;;5041731;28;20496;-63
2023/08/17 03:28:17;;;;;;;11.65;5.53;;;;;;;;;;5050256;28;20033;-64
2023/08/17 03:30:43;;;;;;;8.32;5.18;;;;;;;;;;5052568;28;20040;-64
2023/08/17 03:33:09;;;;;;;8.30;5.13;;;;;;;;;;5051455;28;20052;-64
2023/08/17 03:35:35;;;;;;;12.50;5.13;;;;;;;;;;5062930;28;20053;-63
2023/08/17 03:38:01;;;;;;;10.80;4.72;;;;;;;;;;5053299;28;20049;-64
2023/08/17 03:40:28;;;;;;;12.25;5.68;;;;;;;;;;5052058;28;20045;-64
2023/08/17 03:42:54;;;;;;;8.63;4.97;;;;;;;;;;5050859;28;20041;-64
2023/08/17 03:45:20;;;;;;;10.15;5.13;;;;;;;;;;5053144;28;20520;-64
2023/08/17 03:47:46;;;;;;;11.80;4.97;;;;;;;;;;5050934;28;20432;-64
2023/08/17 03:50:12;;;;;;;9.98;4.85;;;;;;;;;;5035767;28;20433;-64
2023/08/17 03:52:38;;;;;;;15.38;6.28;;;;;;;;;;5033777;28;20037;-64
2023/08/17 03:55:06;;;;;;;12.02;4.65;;;;;;;;;;5044307;28;20041;-64
2023/08/17 03:57:32;;;;;;;10.20;4.63;;;;;;;;;;5043673;28;20053;-64
2023/08/17 03:59:58;;;;;;;7.80;4.68;;;;;;;;;;5035076;28;20045;-64
2023/08/17 04:02:24;;;;;;;11.35;4.53;;;;;;;;;;5034428;28;20048;-64
2023/08/17 04:04:50;;;;;;;11.35;5.03;;;;;;;;;;5030688;28;20427;-64
2023/08/17 04:07:23;;;;;;;9.77;4.65;;;;;;;;;;5049179;28;20545;-64
2023/08/17 04:09:49;;;;;;;11.70;4.80;;;;;;;;;;5038016;28;20045;-64
2023/08/17 04:12:15;;;;;;;8.43;4.47;;;;;;;;;;5048797;28;20053;-64
2023/08/17 04:14:41;;;;;;;9.63;5.30;;;;;;;;;;5042541;28;20056;-64
2023/08/17 04:17:07;;;;;;;8.43;5.25;;;;;;;;;;5041653;28;20049;-64
2023/08/17 04:19:33;;;;;;;12.20;4.63;;;;;;;;;;5044323;28;20396;-64
2023/08/17 04:21:59;;;;;;;12.60;5.53;;;;;;;;;;5065124;28;20054;-64
2023/08/17 04:24:25;;;;;;;9.30;5.43;;;;;;;;;;5032251;28;20493;-64
2023/08/17 04:26:51;;;;;;;10.27;6.20;;;;;;;;;;5032661;28;20121;-64
2023/08/17 04:29:17;;;;;;;13.68;5.28;;;;;;;;;;5040662;28;20053;-64
2023/08/17 04:31:43;;;;;;;12.85;4.80;;;;;;;;;;5038068;28;20045;-64
2023/08/17 04:34:09;;;;;;;9.20;4.22;;;;;;;;;;5041284;28;20054;-64
2023/08/17 04:36:35;;;;;;;6.78;4.68;;;;;;;;;;5045471;28;20128;-64
2023/08/17 04:39:04;;;;;;;9.60;5.72;;;;;;;;;;5043413;28;20048;-64
2023/08/17 04:41:30;;;;;;;8.82;5.25;;;;;;;;;;5050877;28;20045;-64
2023/08/17 04:43:56;;;;;;;6.50;4.13;;;;;;;;;;5051937;28;20054;-64
2023/08/17 04:46:22;;;;;;;11.50;4.80;;;;;;;;;;5039596;28;20072;-64
2023/08/17 04:48:49;;;;;;;6.88;4.30;;;;;;;;;;5040013;28;20123;-64
2023/08/17 04:51:16;;;;;;;9.23;4.15;;;;;;;;;;5047067;28;20485;-64
2023/08/17 04:53:42;;;;;;;9.10;4.40;;;;;;;;;;5051454;28;20071;-63
2023/08/17 04:56:08;;;;;;;7.88;3.85;;;;;;;;;;5040826;28;20070;-64
2023/08/17 04:58:34;;;;;;;6.63;4.50;;;;;;;;;;5042932;28;20144;-64
2023/08/17 05:01:00;;;;;;;8.43;4.38;;;;;;;;;;5046828;28;20045;-65
2023/08/17 05:03:26;;;;;;;12.00;4.55;;;;;;;;;;5041347;28;20077;-65
2023/08/17 05:05:53;;;;;;;7.80;3.95;;;;;;;;;;5041791;28;20045;-64
2023/08/17 05:08:21;;;;;;;11.10;4.00;;;;;;;;;;5040390;28;20057;-63
2023/08/17 05:10:47;;;;;;;11.52;4.07;;;;;;;;;;5050577;28;20060;-64
2023/08/17 05:13:13;;;;;;;6.40;3.55;;;;;;;;;;5043370;28;20053;-63
2023/08/17 05:15:39;;;;;;;5.72;3.70;;;;;;;;;;5050672;28;20503;-64
2023/08/17 05:18:05;;;;;;;8.50;3.90;;;;;;;;;;5051111;28;20493;-65
2023/08/17 05:20:31;;;;;;;8.35;3.42;;;;;;;;;;5050613;28;20071;-64
2023/08/17 05:22:57;;;;;;;8.43;4.38;;;;;;;;;;5057438;28;20405;-65
2023/08/17 05:25:26;;;;;;;6.97;3.65;;;;;;;;;;5045470;28;20455;-62
2023/08/17 05:27:52;;;;;;;8.95;4.15;;;;;;;;;;5043914;28;20044;-63
2023/08/17 05:30:18;;;;;;;10.00;3.60;;;;;;;;;;5048332;28;20048;-63
2023/08/17 05:32:44;;;;;;;8.50;3.33;;;;;;;;;;5054662;28;20072;-63
2023/08/17 05:35:10;;;;;;;7.70;3.35;;;;;;;;;;5057535;28;20056;-63
2023/08/17 05:37:36;;;;;;;9.40;3.67;;;;;;;;;;5049489;28;20111;-63
2023/08/17 05:40:02;;;;;;;6.90;4.13;;;;;;;;;;5050600;28;20048;-64
2023/08/17 05:42:30;;;;;;;9.40;3.60;;;;;;;;;;5047750;28;20052;-63
2023/08/17 05:44:56;;;;;;;6.63;3.22;;;;;;;;;;5046298;28;20045;-63
2023/08/17 05:47:22;;;;;;;8.10;3.47;;;;;;;;;;5045857;28;20079;-63
2023/08/17 05:49:48;;;;;;;8.73;3.75;;;;;;;;;;5036946;28;20045;-63
2023/08/17 05:52:14;;;;;;;7.05;3.05;;;;;;;;;;5048395;28;20041;-64
2023/08/17 05:54:40;;;;;;;8.30;3.53;;;;;;;;;;5052624;28;20044;-63
2023/08/17 05:57:08;;;;;;;7.28;3.00;;;;;;;;;;5049083;28;20084;-63
2023/08/17 05:59:34;;;;;;;12.82;3.35;;;;;;;;;;5042244;28;20047;-63
2023/08/17 06:02:00;;;;;;;7.68;3.08;;;;;;;;;;5046441;28;20032;-63
2023/08/17 06:04:26;;;;;;;8.13;3.13;;;;;;;;;;5047737;28;20052;-63
2023/08/17 06:06:52;;;;;;;6.75;3.15;;;;;;;;;;5062707;28;20049;-63
2023/08/17 06:09:18;;;;;;;7.50;3.33;;;;;;;;;;5055697;28;20166;-63
2023/08/17 06:11:44;;;;;;;8.90;3.13;;;;;;;;;;5049928;28;20497;-64
2023/08/17 06:14:10;;;;;;;7.03;3.75;;;;;;;;;;5051444;28;20060;-64
2023/08/17 06:16:36;;;;;;;7.65;3.22;;;;;;;;;;5057322;28;20056;-63
2023/08/17 06:19:02;;;;;;;6.32;2.85;;;;;;;;;;5052457;28;20148;-65
2023/08/17 06:21:29;;;;;;;5.57;2.47;;;;;;;;;;5054837;28;20091;-63
2023/08/17 06:23:55;;;;;;;8.00;3.47;;;;;;;;;;5050897;28;20553;-64
2023/08/17 06:26:20;;;;;;;9.23;3.60;;;;;;;;;;5070383;28;20068;-64
2023/08/17 06:28:47;;;;;;;7.22;2.63;;;;;;;;;;5053156;28;20052;-64
2023/08/17 06:31:15;;;;;;;6.82;2.60;;;;;;;;;;5054121;28;20048;-64
2023/08/17 06:33:41;;;;;;;9.23;2.42;;;;;;;;;;5054556;28;20064;-64
2023/08/17 06:36:07;;;;;;;4.78;2.42;;;;;;;;;;5067799;28;20052;-64
2023/08/17 06:38:33;;;;;;;7.50;2.97;;;;;;;;;;5070569;28;20045;-63
2023/08/17 06:40:59;;;;;;;6.20;2.45;;;;;;;;;;5054553;28;20047;-63
2023/08/17 06:43:25;;;;;;;4.00;2.28;;;;;;;;;;5052853;28;20121;-63
2023/08/17 06:45:51;;;;;;;8.00;2.30;;;;;;;;;;5052049;28;20041;-64
2023/08/17 06:48:17;;;;;;;6.10;2.50;;;;;;;;;;5053706;28;20052;-64
2023/08/17 06:50:43;;;;;;;9.95;2.42;;;;;;;;;;5053300;28;20087;-64
2023/08/17 06:53:09;;;;;;;7.70;3.25;;;;;;;;;;5052525;28;20045;-64
2023/08/17 06:55:36;;;;;;;6.85;2.53;;;;;;;;;;5050865;28;20061;-64
2023/08/17 06:58:02;;;;;;;7.70;2.38;;;;;;;;;;5045961;28;20060;-64
2023/08/17 07:00:29;;;;;;;7.80;2.22;;;;;;;;;;5051468;28;20049;-63
2023/08/17 07:02:55;;;;;;;10.00;2.42;;;;;;;;;;5052306;28;20116;-64
2023/08/17 07:05:21;;;;;;;7.03;2.20;;;;;;;;;;5050072;28;20044;-64
2023/08/17 07:07:47;;;;;;;8.10;2.25;;;;;;;;;;5052388;28;20649;-64
2023/08/17 07:10:14;;;;;;;7.28;2.95;;;;;;;;;;5053721;28;20055;-64
2023/08/17 07:12:40;;;;;;;4.55;1.80;;;;;;;;;;5053808;28;20139;-64
2023/08/17 07:15:07;;;;;;;7.53;2.45;;;;;;;;;;5052130;28;20049;-64
2023/08/17 07:17:36;;;;;;;7.78;2.47;;;;;;;;;;5053748;28;20049;-64
2023/08/17 07:20:03;;;;;;;6.88;1.95;;;;;;;;;;5051489;28;20080;-65
2023/08/17 07:22:30;;;;;;;7.25;2.47;;;;;;;;;;5054736;28;20045;-64
2023/08/17 07:24:56;;;;;;;7.75;2.10;;;;;;;;;;5053123;28;20057;-64
2023/08/17 07:27:22;;;;;;;5.88;2.45;;;;;;;;;;5052945;28;20528;-64
2023/08/17 07:29:48;;;;;;;6.25;2.28;;;;;;;;;;5051274;28;20041;-64
2023/08/17 07:32:14;;;;;;;3.00;1.70;;;;;;;;;;5053320;28;20037;-63
2023/08/17 07:34:40;;;;;;;4.07;2.10;;;;;;;;;;5051113;28;20059;-64
2023/08/17 07:37:06;;;;;;;9.13;2.00;;;;;;;;;;5035054;28;20139;-64
2023/08/17 07:39:33;;;;;;;6.97;2.10;;;;;;;;;;5051618;28;20049;-64
2023/08/17 07:41:59;;;;;;;6.13;1.48;;;;;;;;;;5052237;28;20045;-64
2023/08/17 07:44:25;;;;;;;3.13;1.30;;;;;;;;;;5051792;28;20041;-64
2023/08/17 07:46:51;;;;;;;6.63;1.52;;;;;;;;;;5050182;28;20033;-64
2023/08/17 07:49:17;;;;;;;8.63;1.90;;;;;;;;;;5045520;28;20052;-64
2023/08/17 07:51:43;;;;;;;10.32;1.60;;;;;;;;;;5051531;28;20049;-64
2023/08/17 07:54:09;;;;;;;5.40;1.55;;;;;;;;;;5050971;28;20102;-65
2023/08/17 07:56:35;;;;;;;4.93;1.73;;;;;;;;;;5044591;28;20053;-64
2023/08/17 07:59:01;;;;;;;8.27;2.20;;;;;;;;;;5051517;28;20045;-64
2023/08/17 08:01:27;;;;;;;4.32;1.52;;;;;;;;;;5050697;28;20140;-64
2023/08/17 08:03:53;;;;;;;8.60;1.55;;;;;;;;;;5049819;28;20127;-64
2023/08/17 08:06:20;;;;;;;5.78;1.50;;;;;;;;;;5049224;28;20045;-63
2023/08/17 08:08:46;;;;;;;5.85;2.88;;;;;;;;;;5052812;28;20095;-66
2023/08/17 08:11:12;;;;;;;6.95;1.77;;;;;;;;;;5050454;28;20516;-65
2023/08/17 08:13:38;;;;;;;8.52;2.60;;;;;;;;;;5052865;28;20059;-65
2023/08/17 08:16:04;;;;;;;7.25;1.77;;;;;;;;;;5049301;28;20508;-64
2023/08/17 08:18:30;;;;;;;8.23;1.90;;;;;;;;;;5051454;28;20110;-64
2023/08/17 08:20:56;;;;;;;6.72;2.05;;;19.00;99.90;;;;;;5052429;28;20076;-64
2023/08/17 08:23:22;;;;;;;4.93;1.70;;;;;;;;;;5052308;28;21057;-64
2023/08/17 08:25:48;;;;;;;5.57;1.55;;;;;;;;;;5052020;28;20045;-64
2023/08/17 08:28:14;;;;;;;10.32;1.55;;;;;;;;;;5061478;28;20113;-64
2023/08/17 08:30:40;;;;;;;5.07;1.45;;;;;;;;;;5054580;28;20147;-64
2023/08/17 08:33:06;;;;;;;7.50;1.50;;;;;;;;;;5058047;28;20396;-65
2023/08/17 08:35:32;;;;;;;4.85;1.48;;;;;;;;;;5072178;28;20052;-65
2023/08/17 08:38:07;;;;;;;5.05;1.10;;;;;;;;;;5071071;28;20141;-65
2023/08/17 08:40:38;;;;;;;12.50;1.50;;;;;;;;;;5062847;28;20064;-65
2023/08/17 08:43:05;;;;;;;4.88;1.30;;;;;;;;;;5051952;28;20413;-65
2023/08/17 08:45:31;;;;;;;5.35;1.60;;;;;;;;;;5048665;28;20405;-65
2023/08/17 08:47:58;;;;;;;5.95;1.60;;;;;;;;;;5051311;28;20377;-65
2023/08/17 08:50:28;;;;;;;6.70;1.30;;;20.50;99.90;;;;;;5051512;28;20040;-64
2023/08/17 08:53:02;;;;;;;3.55;1.00;;;20.30;99.90;;;;;;5050940;28;20098;-61
2023/08/17 08:55:30;;;;;;;5.72;1.13;;;20.70;99.90;;;;;;5051993;28;20060;-62
2023/08/17 08:57:56;;;;;;;5.97;1.17;;;20.80;99.90;;;;;;5058845;28;20048;-63
2023/08/17 09:00:22;;;;;;;4.95;1.10;;;20.40;99.90;;;;;;5052906;28;20130;-63
2023/08/17 09:02:49;;;;;;;5.30;1.63;;;20.20;99.90;;;;;;5050677;28;20090;-63
2023/08/17 09:05:16;;;;;;;4.15;1.23;;;20.10;99.90;;;;;;5051638;28;20045;-63
2023/08/17 09:07:43;;;;;;;8.32;1.17;;;;;;;;;;5050627;28;20045;-63
2023/08/17 09:10:10;;;;;;;3.72;1.45;;;19.70;99.90;;;;;;5051507;28;20049;-62
2023/08/17 09:12:36;;;;;;;4.53;1.65;;;;;;;;;;5063520;28;20103;-62
2023/08/17 09:15:02;;;;;;;3.47;1.20;;;;;;;;;;5051339;28;20497;-63
2023/08/17 09:17:28;;;;;;;5.50;1.30;;;;;;;;;;5050954;28;20131;-63
2023/08/17 09:19:55;;;;;;;8.55;1.38;;;;;;;;;;5050410;28;20204;-63
2023/08/17 09:22:40;;;;;;;6.47;1.27;;;;;;;;;;5045555;28;20124;-64
2023/08/17 09:25:06;;;;;;;2.50;0.90;;;;;;;;;;5064689;28;20068;-63
2023/08/17 09:27:33;;;;;;;3.08;1.13;;;;;;;;;;5050608;28;20140;-64
2023/08/17 09:30:09;;;;;;;3.95;0.93;;;;;;;;;;5055529;28;20048;-65
2023/08/17 09:32:35;;;;;;;6.25;1.65;;;;;;;;;;5052523;28;20051;-63
2023/08/17 09:35:06;;;;;;;7.05;1.52;;;;;;;;;;5055661;28;20105;-68
2023/08/17 09:37:32;;;;;;;;;;;20.30;99.90;;;;;;5055962;28;20516;-68
2023/08/17 09:39:58;;;;;;;4.63;1.23;;;20.90;99.90;;;;;;5051048;28;19927;-67
2023/08/17 09:42:25;;;;;;;4.60;1.00;;;;;;;;;;5054045;28;20498;-68
2023/08/17 09:44:55;;;;;;;5.88;1.23;;;21.40;99.90;;;;;;5053676;28;20045;-68
2023/08/17 09:47:22;;;;;;;3.42;1.17;;;21.80;99.90;;;;;;5055347;28;20098;-68
2023/08/17 09:49:49;;;;;;;6.20;1.17;;;21.90;99.90;;;;;;5051463;28;20049;-67
2023/08/17 09:52:15;;;;;;;4.95;1.35;;;;;;;;;;5050138;28;20033;-69
2023/08/17 09:54:41;;;;;;;4.00;0.90;;;;;;;;;;5065554;28;20041;-68
2023/08/17 09:57:08;;;;;;;5.25;1.38;;;21.90;99.90;;;;;;5051238;28;20048;-67
2023/08/17 09:59:34;;;;;;;6.65;1.10;;;21.70;99.90;;;;;;5034905;28;20046;-69
2023/08/17 10:02:01;;;;;;;4.38;1.17;;;;;;;;;;5053430;28;20048;-69
2023/08/17 10:04:31;;;;;;;3.88;1.27;;;;;;;;;;5057819;28;20045;-69
2023/08/17 10:07:04;;;;;;;6.35;1.52;;;;;;;;;;5054871;28;20087;-68
2023/08/17 10:09:37;;;;;;;5.95;1.52;;;;;;;;;;5053895;28;20048;-68
2023/08/17 10:12:10;;;;;;;2.97;1.10;;;21.20;99.90;;;;;;5053127;28;20049;-67
2023/08/17 10:14:46;;;;;;;4.35;1.20;;;21.10;99.90;;;;;;5053743;28;20045;-69
2023/08/17 10:17:16;;;;;;;4.38;1.02;;;21.50;99.90;;;;;;5041754;28;20052;-69
2023/08/17 10:19:52;;;;;;;4.15;1.63;;;21.90;99.90;;;;;;5058203;28;20037;-69
2023/08/17 10:22:18;;;;;;;2.47;0.95;;;;;;;;;;5052927;28;20041;-68
2023/08/17 10:24:45;;;;;;;3.30;1.30;;;21.60;99.90;;;;;;5053631;28;20048;-69
2023/08/17 10:27:11;;;;;;;5.00;0.98;;;21.60;99.90;;;;;;5054074;28;20171;-70
2023/08/17 10:29:40;;;;;;;6.85;1.20;;;21.80;99.90;;;;;;5051076;28;20052;-69
2023/08/17 10:32:09;;;;;;;6.13;1.15;;;21.70;99.90;;;;;;5051281;28;20037;-66
2023/08/17 10:34:35;;;;;;;5.65;1.42;;;;;;;;;;5053569;28;20049;-66
2023/08/17 10:37:02;;;;;;;3.35;0.95;;;;;;;;;;5053805;28;20143;-66
2023/08/17 10:39:29;;;;;;;3.97;1.17;;;21.60;99.90;;;;;;5056434;28;20037;-67
2023/08/17 10:41:56;;;;;;;3.63;1.10;;;21.30;99.90;;;;;;5064194;28;20072;-67
2023/08/17 10:44:37;;;;;;;3.95;1.38;;;;;;;;;;5052774;28;20064;-67
2023/08/17 10:47:21;;;;;;;5.70;1.10;;;21.40;99.90;;;;;;5054704;28;20055;-67
2023/08/17 10:49:58;;;;;;;3.08;1.10;;;21.70;99.90;;;;;;5051362;28;20087;-68
2023/08/17 10:52:31;;;;;;;6.00;1.35;;;;;;;;;;5048112;28;20080;-67
2023/08/17 10:55:06;;;;;;;5.75;1.17;;;21.60;99.90;;;;;;5053131;28;20052;-67
2023/08/17 10:57:40;;;;;;;6.25;1.67;;;21.20;99.90;;;;;;5053840;28;20045;-67
2023/08/17 11:00:31;;;;;;;5.65;1.35;;;20.80;99.90;;;;;;5052330;28;20040;-66
2023/08/17 11:03:05;;;;;;;3.25;1.20;;;;;;;;;;5040113;28;20045;-67
2023/08/17 11:05:40;;;;;;;5.03;1.50;;;;;;;;;;5048140;28;20044;-67
2023/08/17 11:08:07;;;;;;;3.53;1.17;;;;;;;;;;5052839;28;20390;-66
2023/08/17 11:10:33;;;;;;;7.93;1.27;;;21.80;99.90;;;;;;5054084;28;20092;-67
2023/08/17 11:12:59;;;;;;;7.53;1.60;;;;;;;;;;5052432;28;20049;-67
2023/08/17 11:15:26;;;;;;;3.42;1.25;;;22.20;99.90;;;;;;5052931;28;20124;-67
2023/08/17 11:17:52;;;;;;;5.38;1.98;;;22.10;99.90;;;;;;5053560;28;20048;-67
2023/08/17 11:20:18;;;;;;;7.25;1.45;;;21.90;99.90;;;;;;5070533;28;20090;-67
2023/08/17 11:22:46;;;;;;;3.65;1.20;;;22.30;99.90;;;;;;5072811;28;20090;-63
2023/08/17 11:25:12;;;;;;;3.72;1.25;;;;;;;;;;5057007;28;20048;-66
2023/08/17 11:27:38;;;;;;;3.92;1.00;;;23.10;99.90;;;;;;5053337;28;20187;-66
2023/08/17 11:30:04;;;;;;;3.53;1.50;;;22.70;99.90;;;;;;5051270;28;20115;-66
2023/08/17 11:32:30;;;;;;;5.57;1.20;;;;;;;;;;5052520;28;20095;-67
2023/08/17 11:34:56;;;;;;;3.08;1.10;;;22.60;99.90;;;;;;5057674;28;20083;-67
2023/08/17 11:37:23;;;;;;;5.20;1.40;;;;;;;;;;5061967;28;20775;-66
2023/08/17 11:39:49;;;;;;;3.78;1.33;;;;;;;;;;5053298;28;20134;-66
2023/08/17 11:42:15;;;;;;;4.28;1.25;;;;;;;;;;5052608;28;20432;-66
2023/08/17 11:44:41;;;;;;;4.40;1.00;;;;;;;;;;5068553;28;20054;-66
2023/08/17 11:47:07;;;;;;;5.35;1.60;;;;;;;;;;5060311;28;20148;-66
2023/08/17 11:49:33;;;;;;;5.22;1.60;;;;;;;;;;5051347;28;20057;-66
2023/08/17 11:52:00;;;;;;;5.50;1.70;;;;;;;;;;5051990;28;20049;-66
2023/08/17 11:54:25;;;;;;;3.33;1.15;;;22.40;99.90;;;;;;5035348;28;20135;-66
2023/08/17 11:56:51;;;;;;;2.22;1.17;;;22.70;99.90;;;;;;5051465;28;20453;-67
2023/08/17 11:59:20;;;;;;;5.95;1.50;;;;;;;;;;5052701;28;20123;-66
2023/08/17 12:01:46;;;;;;;6.35;1.50;;;;;;;;;;5050793;28;20041;-66
2023/08/17 12:04:12;;;;;;;4.65;1.48;;;;;;;;;;5055090;28;20063;-67
2023/08/17 12:06:43;;;;;;;3.90;1.40;;;;;;;;;;5052913;28;20055;-66
2023/08/17 12:09:08;;;;;;;4.43;1.45;;;21.20;99.90;;;;;;5052678;28;20049;-66
2023/08/17 12:11:35;;;;;;;6.30;1.45;;;;;;;;;;5051874;28;20115;-67
2023/08/17 12:14:10;;;;;;;4.85;1.40;;;21.30;99.90;;;;;;5052086;28;20056;-66
2023/08/17 12:16:46;;;;;;;3.60;1.33;;;21.60;99.90;;;;;;5059010;28;20087;-66
2023/08/17 12:19:11;;;;;;;5.00;1.67;;;21.80;99.90;;;;;;5072431;28;20041;-66
2023/08/17 12:21:40;;;;;;;3.88;1.45;;;21.40;99.90;;;;;;5071672;28;20443;-67
2023/08/17 12:24:06;;;;;;;4.00;1.50;;;21.30;99.90;;;;;;5072204;28;20048;-66
2023/08/17 12:26:34;;;;;;;5.03;1.50;;;;;;;;;;5052430;28;20500;-66
2023/08/17 12:29:00;;;;;;;4.07;1.60;;;;;;;;;;5052748;28;20053;-67
2023/08/17 12:31:28;;;;;;;7.00;1.60;;;22.10;99.90;;;;;;5056653;28;20040;-67
2023/08/17 12:33:54;;;;;;;4.25;1.52;;;;;;;;;;5072294;28;20086;-67
2023/08/17 12:36:21;;;;;;;5.82;1.50;;;;;;;;;;5054230;28;20091;-67
2023/08/17 12:38:47;;;;;;;3.72;1.60;;;;;;;;;;5071939;28;20048;-67
2023/08/17 12:41:14;;;;;;;4.05;1.40;;;;;;;;;;5052344;28;20489;-67
2023/08/17 12:43:40;;;;;;;6.28;1.40;;;;;;;;;;5052405;28;20049;-67
2023/08/17 12:46:06;;;;;;;5.35;1.73;;;;;;;;;;5050562;28;20095;-67
2023/08/17 12:48:32;;;;;;;5.63;1.88;;;;;;;;;;5054642;28;20048;-66
2023/08/17 12:50:58;;;;;;;6.68;1.52;;;;;;;;;;5059813;28;20464;-67
2023/08/17 12:53:24;;;;;;;4.82;1.50;;;;;;;;;;5051080;28;20111;-67
2023/08/17 12:55:50;;;;;;;6.03;2.00;;;;;;;;;;5050600;28;20041;-67
2023/08/17 12:58:16;;;;;;;3.72;1.48;;;;;;;;;;5050999;28;20148;-67
2023/08/17 13:00:42;;;;;;;4.22;1.48;;;;;;;;;;5052092;28;20548;-66
2023/08/17 13:03:08;;;;;;;5.53;1.85;;;;;;;;;;5049931;28;20443;-67
2023/08/17 13:05:34;;;;;;;5.40;1.63;;;;;;;;;;5050207;28;20420;-67
2023/08/17 13:08:00;;;;;;;4.53;1.63;;;;;;;;;;5050812;28;20378;-67
2023/08/17 13:10:26;;;;;;;4.93;1.80;;;;;;;;;;5070428;28;20044;-67
2023/08/17 13:12:58;;;;;;;5.45;2.15;;;;;;;;;;5051875;28;20471;-67
2023/08/17 13:15:25;;;;;;;8.15;1.80;;;21.90;99.90;;;;;;5051654;28;20581;-67
2023/08/17 13:17:52;;;;;;;7.30;2.40;;;;;;;;;;5051816;28;20095;-67
2023/08/17 13:20:18;;;;;;;8.25;2.00;;;;;;;;;;5049750;28;20523;-67
2023/08/17 13:22:44;;;;;;;5.38;1.67;;;22.20;99.90;;;;;;5049988;28;20125;-67
2023/08/17 13:25:10;;;;;;;4.90;1.80;;;;;;;;;;5050001;28;20087;-66
2023/08/17 13:27:36;;;;;;;5.57;1.98;;;;;;;;;;5051823;28;20075;-67
2023/08/17 13:30:02;;;;;;;7.82;2.42;;;;;;;;;;5050906;28;20504;-65
2023/08/17 13:32:28;;;;;;;5.35;1.55;;;;;;;;;;5048506;28;20101;-67
2023/08/17 13:34:54;;;;;;;7.15;1.90;;;;;;;;;;5057027;28;20068;-67
2023/08/17 13:37:21;;;;;;;8.60;1.83;;;;;;;;;;5050658;28;20053;-67
2023/08/17 13:39:47;;;;;;;8.88;1.55;;;;;;;;;;5051680;28;20095;-67
2023/08/17 13:42:13;;;;;;;7.18;1.80;;;;;;;;;;5051009;28;20480;-67
2023/08/17 13:44:39;;;;;;;5.38;2.05;;;;;;;;;;5049625;28;20049;-67
2023/08/17 13:47:05;;;;;;;7.03;1.80;;;;;;;;;;5049845;28;20499;-67
2023/08/17 13:49:31;;;;;;;4.75;1.42;;;;;;;;;;5050127;28;20045;-67
2023/08/17 13:51:57;;;;;;;4.05;1.92;;;;;;;;;;5059822;28;20051;-66
2023/08/17 13:54:24;;;;;;;4.25;1.90;;;;;;;;;;5056459;28;20059;-67
2023/08/17 13:56:50;;;;;;;4.68;2.05;;;;;;;;;;5051247;28;20473;-67
2023/08/17 13:59:16;;;;;;;6.15;2.15;;;;;;;;;;5050951;28;20060;-67
2023/08/17 14:01:42;;;;;;;5.55;1.92;;;;;;;;;;5050415;28;20057;-67
2023/08/17 14:04:11;;;;;;;4.35;1.90;;;;;;;;;;5050515;28;20484;-66
2023/08/17 14:06:38;;;;;;;7.13;2.50;;;;;;;;;;5050481;28;20415;-67
2023/08/17 14:09:05;;;;;;;6.55;2.15;;;;;;;;;;5050964;28;20337;-66
2023/08/17 14:11:31;;;;;;;5.13;2.10;;;;;;;;;;5052066;28;20084;-67
2023/08/17 14:13:57;;;;;;;4.35;1.95;;;;;;;;;;5064003;28;20053;-67
2023/08/17 14:16:23;;;;;;;4.38;2.55;;;;;;;;;;5053969;28;20124;-67
2023/08/17 14:18:49;;;;;;;7.35;1.90;;;;;;;;;;5053513;28;20476;-67
2023/08/17 14:21:15;;;;;;;5.22;2.00;;;;;;;;;;5052707;28;20056;-67